QFA1655 YBRM-YPPH
Flight info
| Callsign | QFA1655 |
|---|---|
| Flight time | N/A |
| Altitude | 38000 |
| Route | BRM Q38 PH |
| Aircraft | A320/M-SDE3FGHIRWY/LB1 |
Departure
| Time | 2026-04-17 00:33 |
|---|---|
| Airport | Broome International Airport (YBRM) |
Arrival
| Time | N/A |
|---|---|
| Airport | Perth International Airport (YPPH) |
| Time | Latitude | Longitude | Altitude | Speed | Heading |
|---|---|---|---|---|---|
| 2026-04-17 00:33 | -18.24446 | 122.09049 | 13146 ft | 374 kts | 218° |
| 2026-04-17 00:33 | -18.26524 | 122.07382 | 13772 ft | 377 kts | 218° |
| 2026-04-17 00:34 | -18.28619 | 122.05706 | 14329 ft | 379 kts | 218° |
| 2026-04-17 00:34 | -18.30725 | 122.04024 | 14907 ft | 381 kts | 218° |
| 2026-04-17 00:34 | -18.32844 | 122.02336 | 15488 ft | 382 kts | 218° |
| 2026-04-17 00:34 | -18.34965 | 122.00641 | 16073 ft | 384 kts | 218° |
| 2026-04-17 00:35 | -18.37097 | 121.98939 | 16666 ft | 385 kts | 218° |
| 2026-04-17 00:35 | -18.39238 | 121.97227 | 17262 ft | 387 kts | 218° |
| 2026-04-17 00:35 | -18.41386 | 121.95507 | 17857 ft | 389 kts | 218° |
| 2026-04-17 00:35 | -18.43544 | 121.93779 | 18435 ft | 390 kts | 218° |
| 2026-04-17 00:36 | -18.45714 | 121.92037 | 18941 ft | 392 kts | 219° |
| 2026-04-17 00:36 | -18.47892 | 121.90287 | 19452 ft | 395 kts | 219° |
| 2026-04-17 00:36 | -18.50083 | 121.88528 | 19963 ft | 397 kts | 219° |
| 2026-04-17 00:36 | -18.52287 | 121.86763 | 20458 ft | 399 kts | 219° |
| 2026-04-17 00:37 | -18.54509 | 121.84988 | 20938 ft | 402 kts | 219° |
| 2026-04-17 00:37 | -18.56710 | 121.83231 | 21405 ft | 404 kts | 219° |
| 2026-04-17 00:37 | -18.58957 | 121.81436 | 21859 ft | 406 kts | 219° |
| 2026-04-17 00:37 | -18.61212 | 121.79627 | 22305 ft | 408 kts | 219° |
| 2026-04-17 00:38 | -18.63474 | 121.77807 | 22741 ft | 410 kts | 219° |
| 2026-04-17 00:38 | -18.65747 | 121.75978 | 23156 ft | 412 kts | 219° |
| 2026-04-17 00:38 | -18.68036 | 121.74140 | 23561 ft | 414 kts | 219° |
| 2026-04-17 00:38 | -18.70334 | 121.72296 | 23888 ft | 416 kts | 219° |
| 2026-04-17 00:39 | -18.72645 | 121.70440 | 24201 ft | 419 kts | 219° |
| 2026-04-17 00:39 | -18.74969 | 121.68573 | 24511 ft | 421 kts | 219° |
| 2026-04-17 00:39 | -18.77360 | 121.66766 | 24805 ft | 425 kts | 214° |
| 2026-04-17 00:39 | -18.80024 | 121.65362 | 25101 ft | 431 kts | 204° |
| 2026-04-17 00:40 | -18.82910 | 121.64418 | 25391 ft | 436 kts | 199° |
| 2026-04-17 00:40 | -18.85846 | 121.63556 | 25681 ft | 438 kts | 199° |
| 2026-04-17 00:40 | -18.88792 | 121.62681 | 25967 ft | 441 kts | 199° |
| 2026-04-17 00:40 | -18.91748 | 121.61793 | 26246 ft | 443 kts | 199° |
| 2026-04-17 00:41 | -18.94720 | 121.60895 | 26512 ft | 445 kts | 199° |
| 2026-04-17 00:41 | -18.97706 | 121.59994 | 26787 ft | 447 kts | 199° |
| 2026-04-17 00:41 | -19.00706 | 121.59094 | 27057 ft | 450 kts | 199° |
| 2026-04-17 00:41 | -19.03727 | 121.58192 | 27328 ft | 452 kts | 199° |
| 2026-04-17 00:42 | -19.06761 | 121.57288 | 27598 ft | 454 kts | 199° |
| 2026-04-17 00:42 | -19.09811 | 121.56381 | 27864 ft | 456 kts | 199° |
| 2026-04-17 00:42 | -19.12871 | 121.55469 | 28131 ft | 458 kts | 199° |
| 2026-04-17 00:42 | -19.15946 | 121.54554 | 28401 ft | 460 kts | 199° |
| 2026-04-17 00:43 | -19.19000 | 121.53646 | 28659 ft | 463 kts | 199° |
| 2026-04-17 00:43 | -19.22106 | 121.52718 | 28918 ft | 465 kts | 199° |
| 2026-04-17 00:43 | -19.25227 | 121.51780 | 29212 ft | 466 kts | 199° |
| 2026-04-17 00:43 | -19.28340 | 121.50842 | 29604 ft | 465 kts | 200° |
| 2026-04-17 00:44 | -19.31462 | 121.49902 | 29988 ft | 465 kts | 200° |
| 2026-04-17 00:44 | -19.34567 | 121.48971 | 30326 ft | 464 kts | 199° |
| 2026-04-17 00:44 | -19.37679 | 121.48041 | 30658 ft | 464 kts | 200° |
| 2026-04-17 00:44 | -19.40782 | 121.47113 | 30999 ft | 463 kts | 200° |
| 2026-04-17 00:45 | -19.43885 | 121.46182 | 31349 ft | 462 kts | 200° |
| 2026-04-17 00:45 | -19.46979 | 121.45253 | 31703 ft | 462 kts | 200° |
| 2026-04-17 00:45 | -19.50034 | 121.44332 | 32062 ft | 461 kts | 200° |
| 2026-04-17 00:45 | -19.53119 | 121.43404 | 32429 ft | 461 kts | 200° |
| 2026-04-17 00:46 | -19.56207 | 121.42475 | 32817 ft | 460 kts | 200° |
| 2026-04-17 00:46 | -19.59280 | 121.41550 | 33200 ft | 459 kts | 200° |
| 2026-04-17 00:46 | -19.62353 | 121.40627 | 33586 ft | 458 kts | 200° |
| 2026-04-17 00:46 | -19.65426 | 121.39708 | 33983 ft | 458 kts | 200° |
| 2026-04-17 00:47 | -19.68494 | 121.38787 | 34334 ft | 457 kts | 200° |
| 2026-04-17 00:47 | -19.71552 | 121.37866 | 34655 ft | 457 kts | 200° |
| 2026-04-17 00:47 | -19.74612 | 121.36944 | 34969 ft | 457 kts | 200° |
| 2026-04-17 00:47 | -19.77641 | 121.36029 | 35266 ft | 457 kts | 200° |
| 2026-04-17 00:48 | -19.80704 | 121.35096 | 35563 ft | 457 kts | 201° |
| 2026-04-17 00:48 | -19.83683 | 121.33960 | 35851 ft | 454 kts | 206° |
| 2026-04-17 00:48 | -19.86630 | 121.32729 | 36135 ft | 455 kts | 206° |
| 2026-04-17 00:48 | -19.89574 | 121.31500 | 36421 ft | 455 kts | 206° |
| 2026-04-17 00:49 | -19.92530 | 121.30264 | 36703 ft | 455 kts | 206° |
| 2026-04-17 00:49 | -19.95482 | 121.29028 | 36978 ft | 455 kts | 206° |
| 2026-04-17 00:49 | -19.98432 | 121.27793 | 37254 ft | 456 kts | 206° |
| 2026-04-17 00:49 | -20.01383 | 121.26558 | 37519 ft | 456 kts | 206° |
| 2026-04-17 00:50 | -20.04339 | 121.25318 | 37782 ft | 456 kts | 206° |
| 2026-04-17 00:50 | -20.07291 | 121.24079 | 37997 ft | 457 kts | 206° |
| 2026-04-17 00:50 | -20.13192 | 121.21598 | 38055 ft | 459 kts | 206° |
| 2026-04-17 00:51 | -20.19141 | 121.19099 | 38048 ft | 460 kts | 206° |
| 2026-04-17 00:51 | -20.25096 | 121.16609 | 38049 ft | 460 kts | 206° |
| 2026-04-17 00:52 | -20.31051 | 121.14113 | 38048 ft | 459 kts | 207° |
| 2026-04-17 00:52 | -20.37002 | 121.11608 | 38067 ft | 460 kts | 207° |
| 2026-04-17 00:53 | -20.42949 | 121.09103 | 38064 ft | 460 kts | 207° |
| 2026-04-17 00:53 | -20.48905 | 121.06592 | 38072 ft | 460 kts | 207° |
| 2026-04-17 00:54 | -20.54828 | 121.04103 | 38074 ft | 460 kts | 207° |
| 2026-04-17 00:54 | -20.60775 | 121.01593 | 38082 ft | 460 kts | 207° |
| 2026-04-17 00:55 | -20.65731 | 120.99498 | 38071 ft | 460 kts | 207° |
| 2026-04-17 00:55 | -20.72684 | 120.96556 | 38079 ft | 460 kts | 207° |
| 2026-04-17 00:56 | -20.78635 | 120.94036 | 38079 ft | 460 kts | 207° |
| 2026-04-17 00:56 | -20.84586 | 120.91519 | 38076 ft | 460 kts | 207° |
| 2026-04-17 00:57 | -20.90535 | 120.89006 | 38082 ft | 460 kts | 207° |
| 2026-04-17 00:57 | -20.96481 | 120.86483 | 38076 ft | 460 kts | 208° |
| 2026-04-17 00:58 | -21.01417 | 120.84377 | 38084 ft | 459 kts | 208° |
| 2026-04-17 00:58 | -21.08323 | 120.81443 | 38085 ft | 459 kts | 208° |
| 2026-04-17 00:59 | -21.14265 | 120.78924 | 38082 ft | 459 kts | 208° |
| 2026-04-17 00:59 | -21.20206 | 120.76393 | 38085 ft | 459 kts | 208° |
| 2026-04-17 01:00 | -21.26148 | 120.73861 | 38089 ft | 459 kts | 208° |
| 2026-04-17 01:00 | -21.32085 | 120.71328 | 38089 ft | 459 kts | 208° |
| 2026-04-17 01:01 | -21.38022 | 120.68792 | 38086 ft | 459 kts | 208° |
| 2026-04-17 01:01 | -21.43919 | 120.66279 | 38095 ft | 458 kts | 208° |
| 2026-04-17 01:02 | -21.49847 | 120.63748 | 38096 ft | 458 kts | 208° |
| 2026-04-17 01:02 | -21.55775 | 120.61221 | 38091 ft | 458 kts | 208° |
| 2026-04-17 01:03 | -21.60736 | 120.59091 | 38094 ft | 458 kts | 208° |
| 2026-04-17 01:03 | -21.66650 | 120.56553 | 38102 ft | 458 kts | 208° |
| 2026-04-17 01:04 | -21.72529 | 120.54032 | 38102 ft | 457 kts | 209° |
| 2026-04-17 01:04 | -21.78444 | 120.51492 | 38102 ft | 457 kts | 209° |
| 2026-04-17 01:05 | -21.84355 | 120.48954 | 38102 ft | 457 kts | 209° |
| 2026-04-17 01:05 | -21.90260 | 120.46415 | 38102 ft | 456 kts | 209° |
| 2026-04-17 01:06 | -21.96159 | 120.43876 | 38102 ft | 456 kts | 209° |
| 2026-04-17 01:06 | -22.02048 | 120.41330 | 38103 ft | 456 kts | 209° |
| 2026-04-17 01:07 | -22.07934 | 120.38790 | 38106 ft | 455 kts | 209° |
| 2026-04-17 01:07 | -22.13821 | 120.36263 | 38105 ft | 455 kts | 209° |
| 2026-04-17 01:08 | -22.19699 | 120.33723 | 38105 ft | 455 kts | 210° |
| 2026-04-17 01:08 | -22.25530 | 120.31201 | 38106 ft | 454 kts | 210° |
| 2026-04-17 01:09 | -22.31403 | 120.28655 | 38105 ft | 454 kts | 210° |
| 2026-04-17 01:09 | -22.37271 | 120.26112 | 38105 ft | 454 kts | 210° |
| 2026-04-17 01:10 | -22.43128 | 120.23575 | 38105 ft | 453 kts | 210° |
| 2026-04-17 01:10 | -22.48988 | 120.21035 | 38108 ft | 453 kts | 210° |
| 2026-04-17 01:11 | -22.54839 | 120.18503 | 38104 ft | 452 kts | 210° |
| 2026-04-17 01:11 | -22.60637 | 120.15976 | 38108 ft | 452 kts | 210° |
| 2026-04-17 01:12 | -22.66476 | 120.13432 | 38105 ft | 452 kts | 210° |
| 2026-04-17 01:12 | -22.72311 | 120.10893 | 38102 ft | 451 kts | 210° |
| 2026-04-17 01:13 | -22.78141 | 120.08362 | 38103 ft | 451 kts | 210° |
| 2026-04-17 01:13 | -22.83961 | 120.05826 | 38101 ft | 450 kts | 210° |
| 2026-04-17 01:14 | -22.89770 | 120.03280 | 38103 ft | 450 kts | 211° |
| 2026-04-17 01:14 | -22.95541 | 120.00752 | 38104 ft | 450 kts | 211° |
| 2026-04-17 01:15 | -23.01350 | 119.98217 | 38106 ft | 449 kts | 211° |
| 2026-04-17 01:15 | -23.07147 | 119.95683 | 38114 ft | 449 kts | 211° |
| 2026-04-17 01:16 | -23.12942 | 119.93143 | 38115 ft | 448 kts | 211° |
| 2026-04-17 01:16 | -23.18717 | 119.90597 | 38120 ft | 447 kts | 211° |
| 2026-04-17 01:17 | -23.24485 | 119.88061 | 38117 ft | 447 kts | 211° |
| 2026-04-17 01:17 | -23.30253 | 119.85531 | 38119 ft | 446 kts | 211° |
| 2026-04-17 01:18 | -23.36011 | 119.83003 | 38124 ft | 446 kts | 211° |
| 2026-04-17 01:18 | -23.41753 | 119.80468 | 38123 ft | 445 kts | 211° |
| 2026-04-17 01:19 | -23.47490 | 119.78005 | 38117 ft | 446 kts | 210° |
| 2026-04-17 01:19 | -23.53302 | 119.75621 | 38122 ft | 446 kts | 210° |
| 2026-04-17 01:20 | -23.59106 | 119.73238 | 38121 ft | 445 kts | 210° |
| 2026-04-17 01:20 | -23.64893 | 119.70825 | 38124 ft | 445 kts | 211° |
| 2026-04-17 01:21 | -23.70673 | 119.68399 | 38119 ft | 445 kts | 211° |
| 2026-04-17 01:21 | -23.76441 | 119.65976 | 38116 ft | 444 kts | 211° |
| 2026-04-17 01:22 | -23.82212 | 119.63553 | 38116 ft | 444 kts | 211° |
| 2026-04-17 01:22 | -23.87986 | 119.61135 | 38120 ft | 444 kts | 211° |
| 2026-04-17 01:23 | -23.93716 | 119.58736 | 38122 ft | 444 kts | 211° |
| 2026-04-17 01:23 | -23.99483 | 119.56313 | 38115 ft | 443 kts | 211° |
| 2026-04-17 01:24 | -24.05238 | 119.53889 | 38116 ft | 443 kts | 211° |
| 2026-04-17 01:24 | -24.10986 | 119.51469 | 38119 ft | 442 kts | 211° |
| 2026-04-17 01:25 | -24.16724 | 119.49049 | 38123 ft | 442 kts | 211° |
| 2026-04-17 01:25 | -24.22456 | 119.46634 | 38124 ft | 441 kts | 211° |
| 2026-04-17 01:26 | -24.28145 | 119.44231 | 38122 ft | 440 kts | 211° |
| 2026-04-17 01:26 | -24.33860 | 119.41818 | 38126 ft | 440 kts | 211° |
| 2026-04-17 01:27 | -24.39567 | 119.39409 | 38125 ft | 439 kts | 211° |
| 2026-04-17 01:27 | -24.45258 | 119.36994 | 38127 ft | 438 kts | 211° |
| 2026-04-17 01:28 | -24.50944 | 119.34578 | 38132 ft | 438 kts | 212° |
| 2026-04-17 01:28 | -24.56622 | 119.32176 | 38131 ft | 437 kts | 211° |
| 2026-04-17 01:29 | -24.65127 | 119.28571 | 38126 ft | 436 kts | 212° |
| 2026-04-17 01:30 | -24.70782 | 119.26156 | 38129 ft | 435 kts | 212° |
| 2026-04-17 01:30 | -24.71694 | 119.25767 | 38128 ft | 435 kts | 212° |